sensor_id;sensor_type;location;lat;lon;timestamp;P1;durP1;ratioP1;P2;durP2;ratioP2
42682;SDS011;28293;50.930;3.464;2022-09-09T00:06:30;7.63;;;2.40;;
42682;SDS011;28293;50.930;3.464;2022-09-09T00:09:00;5.15;;;2.10;;
42682;SDS011;28293;50.930;3.464;2022-09-09T00:11:54;8.30;;;2.55;;
42682;SDS011;28293;50.930;3.464;2022-09-09T00:17:18;5.47;;;1.90;;
42682;SDS011;28293;50.930;3.464;2022-09-09T00:20:12;4.25;;;1.92;;
42682;SDS011;28293;50.930;3.464;2022-09-09T00:22:59;6.22;;;2.42;;
42682;SDS011;28293;50.930;3.464;2022-09-09T00:27:59;5.90;;;2.05;;
42682;SDS011;28293;50.930;3.464;2022-09-09T00:30:26;8.15;;;2.33;;
42682;SDS011;28293;50.930;3.464;2022-09-09T00:33:00;6.82;;;2.25;;
42682;SDS011;28293;50.930;3.464;2022-09-09T00:35:30;5.30;;;2.10;;
42682;SDS011;28293;50.930;3.464;2022-09-09T00:38:04;8.02;;;2.05;;
42682;SDS011;28293;50.930;3.464;2022-09-09T00:41:26;6.90;;;2.22;;
42682;SDS011;28293;50.930;3.464;2022-09-09T00:43:33;6.30;;;2.65;;
42682;SDS011;28293;50.930;3.464;2022-09-09T00:46:05;6.65;;;2.30;;
42682;SDS011;28293;50.930;3.464;2022-09-09T00:49:04;4.40;;;1.90;;
42682;SDS011;28293;50.930;3.464;2022-09-09T00:54:55;6.97;;;1.98;;
42682;SDS011;28293;50.930;3.464;2022-09-09T00:57:41;8.82;;;2.03;;
42682;SDS011;28293;50.930;3.464;2022-09-09T01:00:27;7.15;;;2.20;;
42682;SDS011;28293;50.930;3.464;2022-09-09T01:03:02;6.50;;;1.90;;
42682;SDS011;28293;50.930;3.464;2022-09-09T01:08:15;7.00;;;2.30;;
42682;SDS011;28293;50.930;3.464;2022-09-09T01:10:48;6.35;;;2.13;;
42682;SDS011;28293;50.930;3.464;2022-09-09T01:13:22;6.68;;;2.22;;
42682;SDS011;28293;50.930;3.464;2022-09-09T01:15:50;6.78;;;1.85;;
42682;SDS011;28293;50.930;3.464;2022-09-09T01:18:19;8.05;;;2.20;;
42682;SDS011;28293;50.930;3.464;2022-09-09T01:23:44;9.10;;;2.30;;
42682;SDS011;28293;50.930;3.464;2022-09-09T01:26:54;8.55;;;2.20;;
42682;SDS011;28293;50.930;3.464;2022-09-09T01:29:24;8.43;;;1.83;;
42682;SDS011;28293;50.930;3.464;2022-09-09T01:31:58;7.13;;;2.33;;
42682;SDS011;28293;50.930;3.464;2022-09-09T01:39:33;7.28;;;2.20;;
42682;SDS011;28293;50.930;3.464;2022-09-09T01:42:01;9.52;;;2.40;;
42682;SDS011;28293;50.930;3.464;2022-09-09T01:44:28;10.55;;;2.42;;
42682;SDS011;28293;50.930;3.464;2022-09-09T01:46:55;9.30;;;2.92;;
42682;SDS011;28293;50.930;3.464;2022-09-09T01:49:21;10.10;;;2.67;;
42682;SDS011;28293;50.930;3.464;2022-09-09T01:51:52;8.13;;;2.80;;
42682;SDS011;28293;50.930;3.464;2022-09-09T01:54:20;8.90;;;2.50;;
42682;SDS011;28293;50.930;3.464;2022-09-09T01:57:00;13.63;;;2.78;;
42682;SDS011;28293;50.930;3.464;2022-09-09T02:08:17;9.45;;;2.58;;
42682;SDS011;28293;50.930;3.464;2022-09-09T02:11:00;8.85;;;2.78;;
42682;SDS011;28293;50.930;3.464;2022-09-09T02:13:48;9.93;;;2.60;;
42682;SDS011;28293;50.930;3.464;2022-09-09T02:19:22;9.80;;;2.55;;
42682;SDS011;28293;50.930;3.464;2022-09-09T02:21:52;10.32;;;2.83;;
42682;SDS011;28293;50.930;3.464;2022-09-09T02:24:20;10.02;;;3.25;;
42682;SDS011;28293;50.930;3.464;2022-09-09T02:26:47;9.25;;;3.10;;
42682;SDS011;28293;50.930;3.464;2022-09-09T02:29:25;11.18;;;2.63;;
42682;SDS011;28293;50.930;3.464;2022-09-09T02:31:55;9.75;;;2.80;;
42682;SDS011;28293;50.930;3.464;2022-09-09T02:34:27;8.85;;;2.72;;
42682;SDS011;28293;50.930;3.464;2022-09-09T02:36:55;10.95;;;2.58;;
42682;SDS011;28293;50.930;3.464;2022-09-09T02:39:24;7.53;;;2.45;;
42682;SDS011;28293;50.930;3.464;2022-09-09T02:41:51;14.45;;;3.40;;
42682;SDS011;28293;50.930;3.464;2022-09-09T02:44:18;10.38;;;3.13;;
42682;SDS011;28293;50.930;3.464;2022-09-09T02:55:05;10.73;;;2.50;;
42682;SDS011;28293;50.930;3.464;2022-09-09T02:57:37;10.98;;;3.30;;
42682;SDS011;28293;50.930;3.464;2022-09-09T03:00:04;11.02;;;2.88;;
42682;SDS011;28293;50.930;3.464;2022-09-09T03:02:30;10.95;;;3.35;;
42682;SDS011;28293;50.930;3.464;2022-09-09T03:04:56;12.25;;;3.20;;
42682;SDS011;28293;50.930;3.464;2022-09-09T03:07:21;12.77;;;3.22;;
42682;SDS011;28293;50.930;3.464;2022-09-09T03:09:47;14.10;;;2.88;;
42682;SDS011;28293;50.930;3.464;2022-09-09T03:12:13;10.30;;;2.92;;
42682;SDS011;28293;50.930;3.464;2022-09-09T03:14:39;14.27;;;3.30;;
42682;SDS011;28293;50.930;3.464;2022-09-09T03:17:05;10.68;;;2.88;;
42682;SDS011;28293;50.930;3.464;2022-09-09T03:19:30;10.38;;;2.95;;
42682;SDS011;28293;50.930;3.464;2022-09-09T03:21:57;10.02;;;3.15;;
42682;SDS011;28293;50.930;3.464;2022-09-09T03:24:23;10.32;;;3.58;;
42682;SDS011;28293;50.930;3.464;2022-09-09T03:26:49;14.88;;;3.70;;
42682;SDS011;28293;50.930;3.464;2022-09-09T03:29:15;12.65;;;3.75;;
42682;SDS011;28293;50.930;3.464;2022-09-09T03:31:43;11.88;;;3.03;;
42682;SDS011;28293;50.930;3.464;2022-09-09T03:34:09;11.23;;;3.22;;
42682;SDS011;28293;50.930;3.464;2022-09-09T03:36:35;16.73;;;3.45;;
42682;SDS011;28293;50.930;3.464;2022-09-09T03:39:00;11.93;;;3.33;;
42682;SDS011;28293;50.930;3.464;2022-09-09T03:41:28;12.10;;;3.42;;
42682;SDS011;28293;50.930;3.464;2022-09-09T03:43:54;14.52;;;3.13;;
42682;SDS011;28293;50.930;3.464;2022-09-09T03:46:21;10.60;;;3.47;;
42682;SDS011;28293;50.930;3.464;2022-09-09T03:48:47;9.38;;;3.08;;
42682;SDS011;28293;50.930;3.464;2022-09-09T03:51:13;12.57;;;2.90;;
42682;SDS011;28293;50.930;3.464;2022-09-09T03:53:40;15.98;;;3.10;;
42682;SDS011;28293;50.930;3.464;2022-09-09T03:56:06;12.63;;;3.28;;
42682;SDS011;28293;50.930;3.464;2022-09-09T03:58:35;13.68;;;3.53;;
42682;SDS011;28293;50.930;3.464;2022-09-09T04:01:03;11.13;;;3.30;;
42682;SDS011;28293;50.930;3.464;2022-09-09T04:03:42;11.20;;;3.05;;
42682;SDS011;28293;50.930;3.464;2022-09-09T04:06:13;11.65;;;3.42;;
42682;SDS011;28293;50.930;3.464;2022-09-09T04:08:40;10.35;;;3.03;;
42682;SDS011;28293;50.930;3.464;2022-09-09T04:11:06;14.55;;;4.00;;
42682;SDS011;28293;50.930;3.464;2022-09-09T04:13:36;14.43;;;3.25;;
42682;SDS011;28293;50.930;3.464;2022-09-09T04:16:04;12.15;;;3.35;;
42682;SDS011;28293;50.930;3.464;2022-09-09T04:18:30;16.23;;;3.65;;
42682;SDS011;28293;50.930;3.464;2022-09-09T04:20:56;14.25;;;4.15;;
42682;SDS011;28293;50.930;3.464;2022-09-09T04:23:23;13.40;;;3.25;;
42682;SDS011;28293;50.930;3.464;2022-09-09T04:25:51;13.27;;;3.85;;
42682;SDS011;28293;50.930;3.464;2022-09-09T04:28:18;15.85;;;3.50;;
42682;SDS011;28293;50.930;3.464;2022-09-09T04:30:45;11.25;;;3.38;;
42682;SDS011;28293;50.930;3.464;2022-09-09T04:33:12;12.60;;;3.28;;
42682;SDS011;28293;50.930;3.464;2022-09-09T04:35:38;13.10;;;3.72;;
42682;SDS011;28293;50.930;3.464;2022-09-09T04:38:08;15.73;;;3.78;;
42682;SDS011;28293;50.930;3.464;2022-09-09T04:40:34;11.57;;;3.20;;
42682;SDS011;28293;50.930;3.464;2022-09-09T04:43:00;11.65;;;3.55;;
42682;SDS011;28293;50.930;3.464;2022-09-09T04:45:28;12.93;;;3.25;;
42682;SDS011;28293;50.930;3.464;2022-09-09T04:47:53;12.13;;;3.63;;
42682;SDS011;28293;50.930;3.464;2022-09-09T04:50:19;15.80;;;3.88;;
42682;SDS011;28293;50.930;3.464;2022-09-09T04:52:45;12.02;;;3.67;;
42682;SDS011;28293;50.930;3.464;2022-09-09T04:55:10;16.08;;;3.53;;
42682;SDS011;28293;50.930;3.464;2022-09-09T04:57:37;15.07;;;3.47;;
42682;SDS011;28293;50.930;3.464;2022-09-09T05:00:04;12.48;;;3.88;;
42682;SDS011;28293;50.930;3.464;2022-09-09T05:02:31;15.70;;;3.55;;
42682;SDS011;28293;50.930;3.464;2022-09-09T05:04:57;17.95;;;3.90;;
42682;SDS011;28293;50.930;3.464;2022-09-09T05:07:23;15.80;;;4.57;;
42682;SDS011;28293;50.930;3.464;2022-09-09T05:09:49;14.95;;;4.05;;
42682;SDS011;28293;50.930;3.464;2022-09-09T05:12:15;12.80;;;3.63;;
42682;SDS011;28293;50.930;3.464;2022-09-09T05:14:44;14.43;;;3.83;;
42682;SDS011;28293;50.930;3.464;2022-09-09T05:17:10;13.07;;;3.65;;
42682;SDS011;28293;50.930;3.464;2022-09-09T05:19:35;16.98;;;4.10;;
42682;SDS011;28293;50.930;3.464;2022-09-09T05:22:01;14.93;;;4.55;;
42682;SDS011;28293;50.930;3.464;2022-09-09T05:24:27;13.20;;;4.30;;
42682;SDS011;28293;50.930;3.464;2022-09-09T05:26:54;17.60;;;4.22;;
42682;SDS011;28293;50.930;3.464;2022-09-09T05:29:23;14.23;;;3.65;;
42682;SDS011;28293;50.930;3.464;2022-09-09T05:31:48;15.82;;;3.85;;
42682;SDS011;28293;50.930;3.464;2022-09-09T05:34:14;15.45;;;4.50;;
42682;SDS011;28293;50.930;3.464;2022-09-09T05:36:40;15.38;;;4.20;;
42682;SDS011;28293;50.930;3.464;2022-09-09T05:39:05;13.13;;;3.75;;
42682;SDS011;28293;50.930;3.464;2022-09-09T05:41:31;15.40;;;3.75;;
42682;SDS011;28293;50.930;3.464;2022-09-09T05:43:57;19.92;;;4.22;;
42682;SDS011;28293;50.930;3.464;2022-09-09T05:46:26;15.88;;;4.30;;
42682;SDS011;28293;50.930;3.464;2022-09-09T05:48:52;16.83;;;4.53;;
42682;SDS011;28293;50.930;3.464;2022-09-09T05:51:19;16.00;;;4.28;;
42682;SDS011;28293;50.930;3.464;2022-09-09T05:53:47;12.70;;;4.07;;
42682;SDS011;28293;50.930;3.464;2022-09-09T05:56:14;15.20;;;4.25;;
42682;SDS011;28293;50.930;3.464;2022-09-09T05:58:42;16.60;;;4.50;;
42682;SDS011;28293;50.930;3.464;2022-09-09T06:01:12;17.15;;;4.50;;
42682;SDS011;28293;50.930;3.464;2022-09-09T06:03:41;16.40;;;3.90;;
42682;SDS011;28293;50.930;3.464;2022-09-09T06:06:09;13.25;;;4.22;;
42682;SDS011;28293;50.930;3.464;2022-09-09T06:08:41;12.80;;;4.25;;
42682;SDS011;28293;50.930;3.464;2022-09-09T06:11:15;14.77;;;3.63;;
42682;SDS011;28293;50.930;3.464;2022-09-09T06:13:43;14.85;;;3.83;;
42682;SDS011;28293;50.930;3.464;2022-09-09T06:16:09;14.02;;;3.92;;
42682;SDS011;28293;50.930;3.464;2022-09-09T06:18:37;13.50;;;3.88;;
42682;SDS011;28293;50.930;3.464;2022-09-09T06:21:04;13.73;;;3.30;;
42682;SDS011;28293;50.930;3.464;2022-09-09T06:23:32;14.82;;;3.85;;
42682;SDS011;28293;50.930;3.464;2022-09-09T06:26:05;13.18;;;3.80;;
42682;SDS011;28293;50.930;3.464;2022-09-09T06:28:36;18.50;;;4.35;;
42682;SDS011;28293;50.930;3.464;2022-09-09T06:31:09;14.07;;;3.75;;
42682;SDS011;28293;50.930;3.464;2022-09-09T06:33:36;12.63;;;3.42;;
42682;SDS011;28293;50.930;3.464;2022-09-09T06:36:06;14.23;;;3.83;;
42682;SDS011;28293;50.930;3.464;2022-09-09T06:38:35;14.68;;;3.88;;
42682;SDS011;28293;50.930;3.464;2022-09-09T06:41:01;14.95;;;4.07;;
42682;SDS011;28293;50.930;3.464;2022-09-09T06:43:27;16.15;;;3.95;;
42682;SDS011;28293;50.930;3.464;2022-09-09T06:45:57;13.13;;;3.92;;
42682;SDS011;28293;50.930;3.464;2022-09-09T06:48:23;12.82;;;3.75;;
42682;SDS011;28293;50.930;3.464;2022-09-09T06:50:50;15.50;;;4.03;;
42682;SDS011;28293;50.930;3.464;2022-09-09T06:53:26;11.32;;;3.55;;
42682;SDS011;28293;50.930;3.464;2022-09-09T06:55:52;12.80;;;3.55;;
42682;SDS011;28293;50.930;3.464;2022-09-09T06:58:18;11.55;;;3.80;;
42682;SDS011;28293;50.930;3.464;2022-09-09T07:00:44;11.20;;;3.38;;
42682;SDS011;28293;50.930;3.464;2022-09-09T07:03:10;15.15;;;4.00;;
42682;SDS011;28293;50.930;3.464;2022-09-09T07:05:36;14.10;;;4.35;;
42682;SDS011;28293;50.930;3.464;2022-09-09T07:08:02;12.00;;;3.72;;
42682;SDS011;28293;50.930;3.464;2022-09-09T07:10:27;13.63;;;3.90;;
42682;SDS011;28293;50.930;3.464;2022-09-09T07:12:53;13.85;;;3.63;;
42682;SDS011;28293;50.930;3.464;2022-09-09T07:15:19;16.38;;;3.78;;
42682;SDS011;28293;50.930;3.464;2022-09-09T07:17:46;14.43;;;3.60;;
42682;SDS011;28293;50.930;3.464;2022-09-09T07:20:13;14.88;;;3.95;;
42682;SDS011;28293;50.930;3.464;2022-09-09T07:22:39;10.48;;;3.95;;
42682;SDS011;28293;50.930;3.464;2022-09-09T07:25:05;13.57;;;3.80;;
42682;SDS011;28293;50.930;3.464;2022-09-09T07:27:32;16.70;;;3.95;;
42682;SDS011;28293;50.930;3.464;2022-09-09T07:29:57;13.25;;;3.88;;
42682;SDS011;28293;50.930;3.464;2022-09-09T07:32:23;14.38;;;3.63;;
42682;SDS011;28293;50.930;3.464;2022-09-09T07:34:50;14.75;;;4.30;;
42682;SDS011;28293;50.930;3.464;2022-09-09T07:37:16;14.52;;;4.30;;
42682;SDS011;28293;50.930;3.464;2022-09-09T07:39:42;14.02;;;4.18;;
42682;SDS011;28293;50.930;3.464;2022-09-09T07:42:08;10.80;;;4.07;;
42682;SDS011;28293;50.930;3.464;2022-09-09T07:44:36;11.65;;;4.25;;
42682;SDS011;28293;50.930;3.464;2022-09-09T07:47:04;14.95;;;4.38;;
42682;SDS011;28293;50.930;3.464;2022-09-09T07:49:30;13.45;;;4.40;;
42682;SDS011;28293;50.930;3.464;2022-09-09T07:51:57;11.48;;;3.70;;
42682;SDS011;28293;50.930;3.464;2022-09-09T07:54:23;12.80;;;3.33;;
42682;SDS011;28293;50.930;3.464;2022-09-09T07:56:48;13.25;;;3.80;;
42682;SDS011;28293;50.930;3.464;2022-09-09T07:59:15;12.98;;;4.00;;
42682;SDS011;28293;50.930;3.464;2022-09-09T08:01:47;12.32;;;3.78;;
42682;SDS011;28293;50.930;3.464;2022-09-09T08:04:18;10.48;;;3.53;;
42682;SDS011;28293;50.930;3.464;2022-09-09T08:06:46;12.73;;;4.10;;
42682;SDS011;28293;50.930;3.464;2022-09-09T08:09:18;13.23;;;3.90;;
42682;SDS011;28293;50.930;3.464;2022-09-09T08:11:44;10.73;;;3.05;;
42682;SDS011;28293;50.930;3.464;2022-09-09T08:14:11;10.85;;;3.92;;
42682;SDS011;28293;50.930;3.464;2022-09-09T08:16:38;12.82;;;3.85;;
42682;SDS011;28293;50.930;3.464;2022-09-09T08:19:06;9.35;;;3.10;;
42682;SDS011;28293;50.930;3.464;2022-09-09T08:21:33;11.35;;;3.42;;
42682;SDS011;28293;50.930;3.464;2022-09-09T08:24:02;11.07;;;3.38;;
42682;SDS011;28293;50.930;3.464;2022-09-09T08:26:37;11.98;;;3.83;;
42682;SDS011;28293;50.930;3.464;2022-09-09T08:29:08;9.43;;;3.20;;
42682;SDS011;28293;50.930;3.464;2022-09-09T08:31:37;9.93;;;3.17;;
42682;SDS011;28293;50.930;3.464;2022-09-09T08:34:05;14.52;;;3.92;;
42682;SDS011;28293;50.930;3.464;2022-09-09T08:36:33;9.65;;;3.42;;
42682;SDS011;28293;50.930;3.464;2022-09-09T08:39:07;12.75;;;3.38;;
42682;SDS011;28293;50.930;3.464;2022-09-09T08:53:08;14.23;;;4.18;;
42682;SDS011;28293;50.930;3.464;2022-09-09T08:55:49;11.82;;;3.65;;
42682;SDS011;28293;50.930;3.464;2022-09-09T08:58:21;14.30;;;3.60;;
42682;SDS011;28293;50.930;3.464;2022-09-09T09:01:00;10.40;;;3.13;;
42682;SDS011;28293;50.930;3.464;2022-09-09T09:14:47;10.90;;;3.25;;
42682;SDS011;28293;50.930;3.464;2022-09-09T09:17:14;8.30;;;2.80;;
42682;SDS011;28293;50.930;3.464;2022-09-09T09:19:44;7.10;;;2.85;;
42682;SDS011;28293;50.930;3.464;2022-09-09T09:22:22;11.00;;;3.03;;
42682;SDS011;28293;50.930;3.464;2022-09-09T09:25:18;7.28;;;2.45;;
42682;SDS011;28293;50.930;3.464;2022-09-09T09:30:29;8.95;;;3.13;;
42682;SDS011;28293;50.930;3.464;2022-09-09T09:33:05;11.57;;;3.17;;
42682;SDS011;28293;50.930;3.464;2022-09-09T09:35:38;10.65;;;2.58;;
42682;SDS011;28293;50.930;3.464;2022-09-09T09:38:18;9.25;;;2.88;;
42682;SDS011;28293;50.930;3.464;2022-09-09T09:40:48;7.65;;;2.97;;
42682;SDS011;28293;50.930;3.464;2022-09-09T09:43:33;8.27;;;2.63;;
42682;SDS011;28293;50.930;3.464;2022-09-09T09:46:00;9.85;;;3.05;;
42682;SDS011;28293;50.930;3.464;2022-09-09T09:48:29;8.38;;;2.90;;
42682;SDS011;28293;50.930;3.464;2022-09-09T09:50:56;9.15;;;2.40;;
42682;SDS011;28293;50.930;3.464;2022-09-09T09:53:31;7.47;;;2.47;;
42682;SDS011;28293;50.930;3.464;2022-09-09T09:56:00;9.73;;;3.00;;
42682;SDS011;28293;50.930;3.464;2022-09-09T09:58:29;7.35;;;2.63;;
42682;SDS011;28293;50.930;3.464;2022-09-09T10:00:58;7.47;;;2.60;;
42682;SDS011;28293;50.930;3.464;2022-09-09T10:05:52;5.85;;;2.50;;
42682;SDS011;28293;50.930;3.464;2022-09-09T10:08:18;9.63;;;2.50;;
42682;SDS011;28293;50.930;3.464;2022-09-09T10:10:48;7.38;;;2.50;;
42682;SDS011;28293;50.930;3.464;2022-09-09T10:16:25;8.35;;;2.17;;
42682;SDS011;28293;50.930;3.464;2022-09-09T10:19:35;5.57;;;2.28;;
42682;SDS011;28293;50.930;3.464;2022-09-09T10:22:10;11.27;;;2.78;;
42682;SDS011;28293;50.930;3.464;2022-09-09T10:24:47;7.53;;;2.30;;
42682;SDS011;28293;50.930;3.464;2022-09-09T10:32:46;8.77;;;2.22;;
42682;SDS011;28293;50.930;3.464;2022-09-09T10:35:33;8.52;;;2.45;;
42682;SDS011;28293;50.930;3.464;2022-09-09T10:38:09;7.63;;;2.28;;
42682;SDS011;28293;50.930;3.464;2022-09-09T10:55:10;6.13;;;2.42;;
42682;SDS011;28293;50.930;3.464;2022-09-09T10:57:45;7.22;;;2.20;;
42682;SDS011;28293;50.930;3.464;2022-09-09T11:00:15;6.10;;;1.90;;
42682;SDS011;28293;50.930;3.464;2022-09-09T11:02:44;7.72;;;2.60;;
42682;SDS011;28293;50.930;3.464;2022-09-09T11:05:41;7.07;;;1.95;;
42682;SDS011;28293;50.930;3.464;2022-09-09T11:19:39;6.68;;;1.90;;
42682;SDS011;28293;50.930;3.464;2022-09-09T11:22:02;5.88;;;1.95;;
42682;SDS011;28293;50.930;3.464;2022-09-09T11:24:52;6.70;;;1.75;;
42682;SDS011;28293;50.930;3.464;2022-09-09T11:31:01;4.75;;;1.80;;
42682;SDS011;28293;50.930;3.464;2022-09-09T11:36:02;6.18;;;1.80;;
42682;SDS011;28293;50.930;3.464;2022-09-09T11:41:41;4.97;;;1.50;;
42682;SDS011;28293;50.930;3.464;2022-09-09T11:44:10;6.00;;;1.83;;
42682;SDS011;28293;50.930;3.464;2022-09-09T11:46:38;3.97;;;1.60;;
42682;SDS011;28293;50.930;3.464;2022-09-09T11:49:21;6.07;;;2.00;;
42682;SDS011;28293;50.930;3.464;2022-09-09T11:54:47;5.55;;;1.80;;
42682;SDS011;28293;50.930;3.464;2022-09-09T11:57:47;6.13;;;1.70;;
42682;SDS011;28293;50.930;3.464;2022-09-09T12:00:27;5.00;;;1.70;;
42682;SDS011;28293;50.930;3.464;2022-09-09T12:03:05;7.07;;;1.80;;
42682;SDS011;28293;50.930;3.464;2022-09-09T12:05:51;5.40;;;1.70;;
42682;SDS011;28293;50.930;3.464;2022-09-09T12:08:20;8.68;;;1.70;;
42682;SDS011;28293;50.930;3.464;2022-09-09T12:10:54;6.68;;;1.95;;
42682;SDS011;28293;50.930;3.464;2022-09-09T12:13:22;3.85;;;1.67;;
42682;SDS011;28293;50.930;3.464;2022-09-09T12:15:54;7.85;;;2.05;;
42682;SDS011;28293;50.930;3.464;2022-09-09T12:24:11;5.93;;;2.10;;
42682;SDS011;28293;50.930;3.464;2022-09-09T12:27:06;6.20;;;2.00;;
42682;SDS011;28293;50.930;3.464;2022-09-09T12:29:51;6.85;;;2.10;;
42682;SDS011;28293;50.930;3.464;2022-09-09T12:32:28;19.08;;;2.72;;
42682;SDS011;28293;50.930;3.464;2022-09-09T12:35:09;7.28;;;2.25;;
42682;SDS011;28293;50.930;3.464;2022-09-09T12:42:47;5.70;;;1.80;;
42682;SDS011;28293;50.930;3.464;2022-09-09T12:45:17;5.80;;;1.90;;
42682;SDS011;28293;50.930;3.464;2022-09-09T12:50:17;9.20;;;2.40;;
42682;SDS011;28293;50.930;3.464;2022-09-09T12:52:53;10.25;;;2.28;;
42682;SDS011;28293;50.930;3.464;2022-09-09T12:55:25;7.35;;;1.90;;
42682;SDS011;28293;50.930;3.464;2022-09-09T12:57:55;7.60;;;1.77;;
42682;SDS011;28293;50.930;3.464;2022-09-09T13:00:23;19.42;;;3.22;;
42682;SDS011;28293;50.930;3.464;2022-09-09T13:02:55;9.75;;;2.50;;
42682;SDS011;28293;50.930;3.464;2022-09-09T13:05:31;6.88;;;2.15;;
42682;SDS011;28293;50.930;3.464;2022-09-09T13:08:19;11.93;;;2.53;;
42682;SDS011;28293;50.930;3.464;2022-09-09T13:11:02;5.85;;;1.77;;
42682;SDS011;28293;50.930;3.464;2022-09-09T13:13:36;5.10;;;1.98;;
42682;SDS011;28293;50.930;3.464;2022-09-09T13:16:04;7.20;;;1.70;;
42682;SDS011;28293;50.930;3.464;2022-09-09T13:18:33;6.38;;;2.00;;
42682;SDS011;28293;50.930;3.464;2022-09-09T13:21:01;8.68;;;2.53;;
42682;SDS011;28293;50.930;3.464;2022-09-09T13:23:28;8.32;;;2.17;;
42682;SDS011;28293;50.930;3.464;2022-09-09T13:25:57;8.90;;;2.30;;
42682;SDS011;28293;50.930;3.464;2022-09-09T13:28:25;7.35;;;2.72;;
42682;SDS011;28293;50.930;3.464;2022-09-09T13:31:02;7.90;;;2.85;;
42682;SDS011;28293;50.930;3.464;2022-09-09T13:33:37;7.20;;;2.30;;
42682;SDS011;28293;50.930;3.464;2022-09-09T13:36:05;9.30;;;2.30;;
42682;SDS011;28293;50.930;3.464;2022-09-09T13:38:37;7.97;;;2.70;;
42682;SDS011;28293;50.930;3.464;2022-09-09T13:41:09;6.78;;;2.15;;
42682;SDS011;28293;50.930;3.464;2022-09-09T13:43:45;5.80;;;2.35;;
42682;SDS011;28293;50.930;3.464;2022-09-09T13:46:25;5.55;;;2.40;;
42682;SDS011;28293;50.930;3.464;2022-09-09T13:49:16;6.15;;;2.10;;
42682;SDS011;28293;50.930;3.464;2022-09-09T13:52:02;6.68;;;2.08;;
42682;SDS011;28293;50.930;3.464;2022-09-09T13:54:35;12.20;;;2.80;;
42682;SDS011;28293;50.930;3.464;2022-09-09T13:57:00;8.93;;;2.75;;
42682;SDS011;28293;50.930;3.464;2022-09-09T13:59:26;12.38;;;3.60;;
42682;SDS011;28293;50.930;3.464;2022-09-09T14:01:52;8.15;;;3.35;;
42682;SDS011;28293;50.930;3.464;2022-09-09T14:04:18;12.10;;;4.05;;
42682;SDS011;28293;50.930;3.464;2022-09-09T14:06:47;10.10;;;3.10;;
42682;SDS011;28293;50.930;3.464;2022-09-09T14:09:14;10.50;;;3.00;;
42682;SDS011;28293;50.930;3.464;2022-09-09T14:11:41;12.05;;;3.17;;
42682;SDS011;28293;50.930;3.464;2022-09-09T14:14:08;8.35;;;2.33;;
42682;SDS011;28293;50.930;3.464;2022-09-09T14:16:34;7.47;;;2.63;;
42682;SDS011;28293;50.930;3.464;2022-09-09T14:18:59;7.10;;;3.10;;
42682;SDS011;28293;50.930;3.464;2022-09-09T14:21:26;7.60;;;2.85;;
42682;SDS011;28293;50.930;3.464;2022-09-09T14:23:52;7.88;;;2.35;;
42682;SDS011;28293;50.930;3.464;2022-09-09T14:26:19;6.18;;;1.73;;
42682;SDS011;28293;50.930;3.464;2022-09-09T14:28:46;5.50;;;1.40;;
42682;SDS011;28293;50.930;3.464;2022-09-09T14:31:12;4.35;;;1.52;;
42682;SDS011;28293;50.930;3.464;2022-09-09T14:33:38;4.65;;;1.70;;
42682;SDS011;28293;50.930;3.464;2022-09-09T14:36:04;5.28;;;1.67;;
42682;SDS011;28293;50.930;3.464;2022-09-09T14:38:31;4.78;;;1.55;;
42682;SDS011;28293;50.930;3.464;2022-09-09T14:40:59;7.55;;;1.70;;
42682;SDS011;28293;50.930;3.464;2022-09-09T14:43:28;7.07;;;2.25;;
42682;SDS011;28293;50.930;3.464;2022-09-09T14:45:54;3.83;;;1.60;;
42682;SDS011;28293;50.930;3.464;2022-09-09T14:48:20;5.20;;;1.85;;
42682;SDS011;28293;50.930;3.464;2022-09-09T14:50:46;4.85;;;1.80;;
42682;SDS011;28293;50.930;3.464;2022-09-09T14:53:11;5.32;;;1.70;;
42682;SDS011;28293;50.930;3.464;2022-09-09T14:55:37;6.35;;;1.60;;
42682;SDS011;28293;50.930;3.464;2022-09-09T14:58:03;4.50;;;2.15;;
42682;SDS011;28293;50.930;3.464;2022-09-09T15:00:31;7.00;;;1.90;;
42682;SDS011;28293;50.930;3.464;2022-09-09T15:02:57;4.10;;;1.40;;
42682;SDS011;28293;50.930;3.464;2022-09-09T15:05:22;6.90;;;1.35;;
42682;SDS011;28293;50.930;3.464;2022-09-09T15:07:49;5.15;;;1.75;;
42682;SDS011;28293;50.930;3.464;2022-09-09T15:10:15;4.97;;;1.48;;
42682;SDS011;28293;50.930;3.464;2022-09-09T15:12:42;5.35;;;1.92;;
42682;SDS011;28293;50.930;3.464;2022-09-09T15:15:08;6.32;;;1.60;;
42682;SDS011;28293;50.930;3.464;2022-09-09T15:17:34;7.97;;;2.00;;
42682;SDS011;28293;50.930;3.464;2022-09-09T15:20:01;5.20;;;1.83;;
42682;SDS011;28293;50.930;3.464;2022-09-09T15:22:33;5.88;;;2.25;;
42682;SDS011;28293;50.930;3.464;2022-09-09T15:24:59;8.75;;;2.40;;
42682;SDS011;28293;50.930;3.464;2022-09-09T15:27:24;7.70;;;2.70;;
42682;SDS011;28293;50.930;3.464;2022-09-09T15:29:50;8.20;;;2.42;;
42682;SDS011;28293;50.930;3.464;2022-09-09T15:32:16;9.38;;;2.55;;
42682;SDS011;28293;50.930;3.464;2022-09-09T15:34:42;6.32;;;2.38;;
42682;SDS011;28293;50.930;3.464;2022-09-09T15:37:09;5.70;;;2.20;;
42682;SDS011;28293;50.930;3.464;2022-09-09T15:39:38;5.70;;;1.77;;
42682;SDS011;28293;50.930;3.464;2022-09-09T15:42:04;7.13;;;2.03;;
42682;SDS011;28293;50.930;3.464;2022-09-09T15:44:41;3.65;;;1.38;;
42682;SDS011;28293;50.930;3.464;2022-09-09T15:47:07;5.57;;;1.90;;
42682;SDS011;28293;50.930;3.464;2022-09-09T15:49:37;5.53;;;1.88;;
42682;SDS011;28293;50.930;3.464;2022-09-09T15:52:03;7.97;;;2.75;;
42682;SDS011;28293;50.930;3.464;2022-09-09T15:54:33;5.57;;;2.08;;
42682;SDS011;28293;50.930;3.464;2022-09-09T15:57:01;5.68;;;2.30;;
42682;SDS011;28293;50.930;3.464;2022-09-09T15:59:29;6.50;;;2.20;;
42682;SDS011;28293;50.930;3.464;2022-09-09T16:01:56;6.10;;;2.22;;
42682;SDS011;28293;50.930;3.464;2022-09-09T16:04:23;7.90;;;2.20;;
42682;SDS011;28293;50.930;3.464;2022-09-09T16:06:53;8.88;;;2.30;;
42682;SDS011;28293;50.930;3.464;2022-09-09T16:09:28;6.97;;;2.72;;
42682;SDS011;28293;50.930;3.464;2022-09-09T16:11:58;5.68;;;2.28;;
42682;SDS011;28293;50.930;3.464;2022-09-09T16:14:25;9.98;;;2.80;;
42682;SDS011;28293;50.930;3.464;2022-09-09T16:16:52;6.30;;;2.80;;
42682;SDS011;28293;50.930;3.464;2022-09-09T16:19:18;7.10;;;2.60;;
42682;SDS011;28293;50.930;3.464;2022-09-09T16:21:48;4.78;;;2.30;;
42682;SDS011;28293;50.930;3.464;2022-09-09T16:24:15;6.70;;;2.88;;
42682;SDS011;28293;50.930;3.464;2022-09-09T16:26:46;7.93;;;2.70;;
42682;SDS011;28293;50.930;3.464;2022-09-09T16:29:14;6.35;;;2.50;;
42682;SDS011;28293;50.930;3.464;2022-09-09T16:31:41;4.95;;;2.33;;
42682;SDS011;28293;50.930;3.464;2022-09-09T16:34:07;6.10;;;2.30;;
42682;SDS011;28293;50.930;3.464;2022-09-09T16:36:35;7.13;;;2.22;;
42682;SDS011;28293;50.930;3.464;2022-09-09T16:39:04;6.28;;;2.47;;
42682;SDS011;28293;50.930;3.464;2022-09-09T16:41:31;6.38;;;2.15;;
42682;SDS011;28293;50.930;3.464;2022-09-09T16:43:58;8.02;;;2.58;;
42682;SDS011;28293;50.930;3.464;2022-09-09T16:46:27;7.57;;;1.98;;
42682;SDS011;28293;50.930;3.464;2022-09-09T16:48:55;6.70;;;2.33;;
42682;SDS011;28293;50.930;3.464;2022-09-09T16:51:23;8.85;;;2.50;;
42682;SDS011;28293;50.930;3.464;2022-09-09T16:53:54;9.07;;;2.33;;
42682;SDS011;28293;50.930;3.464;2022-09-09T16:56:24;8.35;;;2.35;;
42682;SDS011;28293;50.930;3.464;2022-09-09T16:58:53;9.63;;;2.30;;
42682;SDS011;28293;50.930;3.464;2022-09-09T17:01:24;8.00;;;2.65;;
42682;SDS011;28293;50.930;3.464;2022-09-09T17:03:57;13.20;;;2.63;;
42682;SDS011;28293;50.930;3.464;2022-09-09T17:06:26;8.70;;;2.22;;
42682;SDS011;28293;50.930;3.464;2022-09-09T17:08:55;10.32;;;2.83;;
42682;SDS011;28293;50.930;3.464;2022-09-09T17:11:22;9.70;;;2.70;;